Kezdőlap
METAR-TAF:

METAR-TAF

Repülőterek :

Princess Juliana nemzetközi repülőtér

Sint Maarten, Holland Antillák

földrajzi szélesség: 18-03N, földrajzi hosszúság: 063-07W, magasság: 4 m

Jelenlegi meteorológiai megfigyelések

A jelentés 53 perccel ezelõtt készült, 03:00 UTC
Északkeleti szél 10 kt
Hőmérséklet 29°C
Páratartalom 84%
Légköri nyomás 1018 hPa
Látótávolság 10 km, vagy több
Kevés felhő 1600 lábon

METAR: TNCM 130300Z 05010KT 9999 FEW016 29/26 Q1018

Idő: 23:53 (03:53 UTC)

Előrejelzés

A jelentés 5 órával és 53 perccel ezelõtt készült, 22:00 UTC
Az előrejelzés 13-én 00 óra UTC és 13-én 24 óra UTC között érvényes
Keleti szél 8 kt
Látótávolság 10 km, vagy több
Szórványos felhőzet 1800 lábon
Záporok a közelben,

TAF: TNCM 122200Z 1300/1324 08008KT 9999 VCSH SCT018

Meteorológiai megfigyelések és előrejelzések több, mint 4000 repülőtéren (METAR és TAF jelentéseket).

A térképen piros és sárga pontok jelzik az elérhető meteorológiai állomásokat.

Mozgassa az egeret a pont fölött, hogy megjelenjen az állomás neve.

Azután kattintson az időjárási megfigyelések és előrejelzések megtekintéséhez.

A térkép megváltoztatása: kattintson a fekete keresztel jelölt zöld gombra ráközelítéshez, a vonallal jelölt zöld gombra távolításhoz, vagy a zöld nyilakra a szomszédos térképek eléréséhez.


METAR-TAF: